sensor_id;sensor_type;location;lat;lon;timestamp;P1;durP1;ratioP1;P2;durP2;ratioP2
35977;SDS011;22056;0.000;0.000;2023-03-23T00:00:19;6.35;;;1.17;;
35977;SDS011;22056;0.000;0.000;2023-03-23T00:02:46;4.15;;;0.90;;
35977;SDS011;22056;0.000;0.000;2023-03-23T00:05:12;3.88;;;0.63;;
35977;SDS011;22056;0.000;0.000;2023-03-23T00:07:38;3.22;;;0.80;;
35977;SDS011;22056;0.000;0.000;2023-03-23T00:10:10;5.90;;;0.77;;
35977;SDS011;22056;0.000;0.000;2023-03-23T00:12:36;3.35;;;0.80;;
35977;SDS011;22056;0.000;0.000;2023-03-23T00:15:06;5.28;;;0.90;;
35977;SDS011;22056;0.000;0.000;2023-03-23T00:17:33;3.80;;;0.80;;
35977;SDS011;22056;0.000;0.000;2023-03-23T00:20:00;3.72;;;0.90;;
35977;SDS011;22056;0.000;0.000;2023-03-23T00:22:28;3.40;;;1.00;;
35977;SDS011;22056;0.000;0.000;2023-03-23T00:24:54;4.22;;;0.80;;
35977;SDS011;22056;0.000;0.000;2023-03-23T00:27:21;2.38;;;0.68;;
35977;SDS011;22056;0.000;0.000;2023-03-23T00:29:50;4.47;;;0.93;;
35977;SDS011;22056;0.000;0.000;2023-03-23T00:32:18;3.30;;;0.75;;
35977;SDS011;22056;0.000;0.000;2023-03-23T00:34:45;1.58;;;0.70;;
35977;SDS011;22056;0.000;0.000;2023-03-23T00:37:13;3.03;;;0.85;;
35977;SDS011;22056;0.000;0.000;2023-03-23T00:39:41;2.95;;;0.70;;
35977;SDS011;22056;0.000;0.000;2023-03-23T00:42:11;3.13;;;0.75;;
35977;SDS011;22056;0.000;0.000;2023-03-23T00:44:37;2.67;;;0.60;;
35977;SDS011;22056;0.000;0.000;2023-03-23T00:47:04;1.50;;;0.60;;
35977;SDS011;22056;0.000;0.000;2023-03-23T00:49:32;4.05;;;0.68;;
35977;SDS011;22056;0.000;0.000;2023-03-23T00:52:00;1.88;;;0.70;;
35977;SDS011;22056;0.000;0.000;2023-03-23T00:54:27;1.95;;;0.70;;
35977;SDS011;22056;0.000;0.000;2023-03-23T00:56:53;1.90;;;0.65;;
35977;SDS011;22056;0.000;0.000;2023-03-23T00:59:20;3.42;;;0.73;;
35977;SDS011;22056;0.000;0.000;2023-03-23T01:01:46;3.03;;;0.80;;
35977;SDS011;22056;0.000;0.000;2023-03-23T01:04:13;1.60;;;0.70;;
35977;SDS011;22056;0.000;0.000;2023-03-23T01:06:40;3.05;;;0.60;;
35977;SDS011;22056;0.000;0.000;2023-03-23T01:09:07;3.13;;;0.85;;
35977;SDS011;22056;0.000;0.000;2023-03-23T01:11:34;1.80;;;0.60;;
35977;SDS011;22056;0.000;0.000;2023-03-23T01:14:00;1.15;;;0.40;;
35977;SDS011;22056;0.000;0.000;2023-03-23T01:16:26;1.23;;;0.63;;
35977;SDS011;22056;0.000;0.000;2023-03-23T01:18:53;0.68;;;0.47;;
35977;SDS011;22056;0.000;0.000;2023-03-23T01:21:19;1.38;;;0.60;;
35977;SDS011;22056;0.000;0.000;2023-03-23T01:23:46;1.35;;;0.60;;
35977;SDS011;22056;0.000;0.000;2023-03-23T01:26:17;2.90;;;0.60;;
35977;SDS011;22056;0.000;0.000;2023-03-23T01:28:43;1.02;;;0.50;;
35977;SDS011;22056;0.000;0.000;2023-03-23T01:31:11;2.13;;;0.63;;
35977;SDS011;22056;0.000;0.000;2023-03-23T01:33:38;1.73;;;0.55;;
35977;SDS011;22056;0.000;0.000;2023-03-23T01:36:05;1.42;;;0.60;;
35977;SDS011;22056;0.000;0.000;2023-03-23T01:38:32;1.45;;;0.60;;
35977;SDS011;22056;0.000;0.000;2023-03-23T01:40:59;2.42;;;0.60;;
35977;SDS011;22056;0.000;0.000;2023-03-23T01:43:25;1.05;;;0.60;;
35977;SDS011;22056;0.000;0.000;2023-03-23T01:45:51;1.33;;;0.47;;
35977;SDS011;22056;0.000;0.000;2023-03-23T01:48:24;1.10;;;0.63;;
35977;SDS011;22056;0.000;0.000;2023-03-23T01:53:19;2.20;;;0.60;;
35977;SDS011;22056;0.000;0.000;2023-03-23T01:55:46;1.15;;;0.57;;
35977;SDS011;22056;0.000;0.000;2023-03-23T01:58:16;1.73;;;0.40;;
35977;SDS011;22056;0.000;0.000;2023-03-23T02:00:43;2.22;;;0.50;;
35977;SDS011;22056;0.000;0.000;2023-03-23T02:03:09;2.38;;;0.50;;
35977;SDS011;22056;0.000;0.000;2023-03-23T02:05:38;1.15;;;0.40;;
35977;SDS011;22056;0.000;0.000;2023-03-23T02:08:05;2.78;;;0.50;;
35977;SDS011;22056;0.000;0.000;2023-03-23T02:10:33;1.42;;;0.73;;
35977;SDS011;22056;0.000;0.000;2023-03-23T02:13:00;0.70;;;0.43;;
35977;SDS011;22056;0.000;0.000;2023-03-23T02:15:28;1.70;;;0.57;;
35977;SDS011;22056;0.000;0.000;2023-03-23T02:18:03;0.50;;;0.32;;
35977;SDS011;22056;0.000;0.000;2023-03-23T02:25:50;0.47;;;0.40;;
35977;SDS011;22056;0.000;0.000;2023-03-23T02:33:56;0.70;;;0.50;;
35977;SDS011;22056;0.000;0.000;2023-03-23T02:36:28;0.90;;;0.32;;
35977;SDS011;22056;0.000;0.000;2023-03-23T02:39:03;0.93;;;0.40;;
35977;SDS011;22056;0.000;0.000;2023-03-23T02:41:31;1.15;;;0.47;;
35977;SDS011;22056;0.000;0.000;2023-03-23T02:44:00;0.30;;;0.30;;
35977;SDS011;22056;0.000;0.000;2023-03-23T02:46:27;1.05;;;0.40;;
35977;SDS011;22056;0.000;0.000;2023-03-23T02:48:54;2.25;;;0.50;;
35977;SDS011;22056;0.000;0.000;2023-03-23T02:51:21;0.57;;;0.50;;
35977;SDS011;22056;0.000;0.000;2023-03-23T02:53:48;0.60;;;0.40;;
35977;SDS011;22056;0.000;0.000;2023-03-23T02:56:17;1.00;;;0.40;;
35977;SDS011;22056;0.000;0.000;2023-03-23T02:58:43;1.20;;;0.40;;
35977;SDS011;22056;0.000;0.000;2023-03-23T03:01:46;0.88;;;0.50;;
35977;SDS011;22056;0.000;0.000;2023-03-23T03:04:06;0.57;;;0.40;;
35977;SDS011;22056;0.000;0.000;2023-03-23T03:09:07;0.68;;;0.47;;
35977;SDS011;22056;0.000;0.000;2023-03-23T03:11:36;1.73;;;0.47;;
35977;SDS011;22056;0.000;0.000;2023-03-23T03:14:05;1.55;;;0.40;;
35977;SDS011;22056;0.000;0.000;2023-03-23T03:16:33;0.32;;;0.30;;
35977;SDS011;22056;0.000;0.000;2023-03-23T03:19:22;0.63;;;0.47;;
35977;SDS011;22056;0.000;0.000;2023-03-23T03:21:50;1.20;;;0.57;;
35977;SDS011;22056;0.000;0.000;2023-03-23T03:24:18;0.40;;;0.22;;
35977;SDS011;22056;0.000;0.000;2023-03-23T03:26:47;0.85;;;0.45;;
35977;SDS011;22056;0.000;0.000;2023-03-23T03:29:15;0.47;;;0.25;;
35977;SDS011;22056;0.000;0.000;2023-03-23T03:31:42;0.93;;;0.40;;
35977;SDS011;22056;0.000;0.000;2023-03-23T03:34:10;0.60;;;0.40;;
35977;SDS011;22056;0.000;0.000;2023-03-23T03:36:36;1.52;;;0.40;;
35977;SDS011;22056;0.000;0.000;2023-03-23T03:39:04;0.80;;;0.50;;
35977;SDS011;22056;0.000;0.000;2023-03-23T03:41:32;0.57;;;0.30;;
35977;SDS011;22056;0.000;0.000;2023-03-23T03:43:58;0.63;;;0.30;;
35977;SDS011;22056;0.000;0.000;2023-03-23T03:46:25;0.55;;;0.50;;
35977;SDS011;22056;0.000;0.000;2023-03-23T03:48:54;0.43;;;0.40;;
35977;SDS011;22056;0.000;0.000;2023-03-23T03:51:21;0.60;;;0.40;;
35977;SDS011;22056;0.000;0.000;2023-03-23T03:53:48;0.75;;;0.38;;
35977;SDS011;22056;0.000;0.000;2023-03-23T03:56:14;0.30;;;0.30;;
35977;SDS011;22056;0.000;0.000;2023-03-23T03:58:41;0.68;;;0.40;;
35977;SDS011;22056;0.000;0.000;2023-03-23T04:01:07;0.70;;;0.50;;
35977;SDS011;22056;0.000;0.000;2023-03-23T04:03:37;0.60;;;0.30;;
35977;SDS011;22056;0.000;0.000;2023-03-23T04:06:04;0.63;;;0.40;;
35977;SDS011;22056;0.000;0.000;2023-03-23T04:08:30;0.95;;;0.30;;
35977;SDS011;22056;0.000;0.000;2023-03-23T04:10:57;1.00;;;0.40;;
35977;SDS011;22056;0.000;0.000;2023-03-23T04:13:23;0.35;;;0.35;;
35977;SDS011;22056;0.000;0.000;2023-03-23T04:15:50;0.40;;;0.40;;
35977;SDS011;22056;0.000;0.000;2023-03-23T04:18:16;0.30;;;0.30;;
35977;SDS011;22056;0.000;0.000;2023-03-23T04:20:46;0.55;;;0.43;;
35977;SDS011;22056;0.000;0.000;2023-03-23T04:23:14;1.05;;;0.38;;
35977;SDS011;22056;0.000;0.000;2023-03-23T04:25:45;0.52;;;0.30;;
35977;SDS011;22056;0.000;0.000;2023-03-23T04:28:12;0.40;;;0.30;;
35977;SDS011;22056;0.000;0.000;2023-03-23T04:30:38;0.50;;;0.35;;
35977;SDS011;22056;0.000;0.000;2023-03-23T04:33:08;0.50;;;0.25;;
35977;SDS011;22056;0.000;0.000;2023-03-23T04:35:39;0.63;;;0.40;;
35977;SDS011;22056;0.000;0.000;2023-03-23T04:38:06;0.93;;;0.40;;
35977;SDS011;22056;0.000;0.000;2023-03-23T04:40:35;0.65;;;0.30;;
35977;SDS011;22056;0.000;0.000;2023-03-23T04:43:01;0.50;;;0.22;;
35977;SDS011;22056;0.000;0.000;2023-03-23T04:45:31;0.57;;;0.32;;
35977;SDS011;22056;0.000;0.000;2023-03-23T04:47:57;0.52;;;0.40;;
35977;SDS011;22056;0.000;0.000;2023-03-23T04:50:26;1.17;;;0.30;;
35977;SDS011;22056;0.000;0.000;2023-03-23T04:52:53;0.45;;;0.40;;
35977;SDS011;22056;0.000;0.000;2023-03-23T04:55:22;0.70;;;0.35;;
35977;SDS011;22056;0.000;0.000;2023-03-23T04:57:49;1.05;;;0.32;;
35977;SDS011;22056;0.000;0.000;2023-03-23T05:00:15;0.50;;;0.40;;
35977;SDS011;22056;0.000;0.000;2023-03-23T05:02:43;1.58;;;0.40;;
35977;SDS011;22056;0.000;0.000;2023-03-23T05:05:11;0.50;;;0.40;;
35977;SDS011;22056;0.000;0.000;2023-03-23T05:07:38;0.82;;;0.40;;
35977;SDS011;22056;0.000;0.000;2023-03-23T05:10:05;0.50;;;0.40;;
35977;SDS011;22056;0.000;0.000;2023-03-23T05:12:32;1.30;;;0.40;;
35977;SDS011;22056;0.000;0.000;2023-03-23T05:14:59;0.20;;;0.20;;
35977;SDS011;22056;0.000;0.000;2023-03-23T05:17:25;0.75;;;0.30;;
35977;SDS011;22056;0.000;0.000;2023-03-23T05:19:52;0.47;;;0.40;;
35977;SDS011;22056;0.000;0.000;2023-03-23T05:22:18;0.82;;;0.30;;
35977;SDS011;22056;0.000;0.000;2023-03-23T05:24:48;0.50;;;0.30;;
35977;SDS011;22056;0.000;0.000;2023-03-23T05:27:18;0.70;;;0.30;;
35977;SDS011;22056;0.000;0.000;2023-03-23T05:29:44;0.28;;;0.28;;
35977;SDS011;22056;0.000;0.000;2023-03-23T05:32:14;0.20;;;0.20;;
35977;SDS011;22056;0.000;0.000;2023-03-23T05:34:41;0.35;;;0.30;;
35977;SDS011;22056;0.000;0.000;2023-03-23T05:37:08;0.40;;;0.30;;
35977;SDS011;22056;0.000;0.000;2023-03-23T05:39:34;0.40;;;0.40;;
35977;SDS011;22056;0.000;0.000;2023-03-23T05:42:01;0.47;;;0.30;;
35977;SDS011;22056;0.000;0.000;2023-03-23T05:44:27;0.50;;;0.30;;
35977;SDS011;22056;0.000;0.000;2023-03-23T05:46:54;1.23;;;0.52;;
35977;SDS011;22056;0.000;0.000;2023-03-23T05:49:20;0.85;;;0.40;;
35977;SDS011;22056;0.000;0.000;2023-03-23T05:51:46;1.38;;;0.50;;
35977;SDS011;22056;0.000;0.000;2023-03-23T05:54:14;0.95;;;0.43;;
35977;SDS011;22056;0.000;0.000;2023-03-23T05:56:41;0.55;;;0.30;;
35977;SDS011;22056;0.000;0.000;2023-03-23T05:59:07;1.75;;;0.50;;
35977;SDS011;22056;0.000;0.000;2023-03-23T06:01:35;1.27;;;0.50;;
35977;SDS011;22056;0.000;0.000;2023-03-23T06:04:01;1.05;;;0.32;;
35977;SDS011;22056;0.000;0.000;2023-03-23T06:06:28;0.47;;;0.30;;
35977;SDS011;22056;0.000;0.000;2023-03-23T06:08:55;1.90;;;0.55;;
35977;SDS011;22056;0.000;0.000;2023-03-23T06:11:22;0.40;;;0.30;;
35977;SDS011;22056;0.000;0.000;2023-03-23T06:13:49;1.20;;;0.40;;
35977;SDS011;22056;0.000;0.000;2023-03-23T06:16:15;2.03;;;0.50;;
35977;SDS011;22056;0.000;0.000;2023-03-23T06:18:42;1.92;;;0.60;;
35977;SDS011;22056;0.000;0.000;2023-03-23T06:21:09;2.63;;;0.50;;
35977;SDS011;22056;0.000;0.000;2023-03-23T06:23:36;1.33;;;0.40;;
35977;SDS011;22056;0.000;0.000;2023-03-23T06:26:03;1.08;;;0.45;;
35977;SDS011;22056;0.000;0.000;2023-03-23T06:28:30;0.80;;;0.50;;
35977;SDS011;22056;0.000;0.000;2023-03-23T06:31:00;1.42;;;0.60;;
35977;SDS011;22056;0.000;0.000;2023-03-23T06:33:28;1.37;;;0.60;;
35977;SDS011;22056;0.000;0.000;2023-03-23T06:35:54;0.82;;;0.40;;
35977;SDS011;22056;0.000;0.000;2023-03-23T06:38:21;4.05;;;0.73;;
35977;SDS011;22056;0.000;0.000;2023-03-23T06:40:47;2.65;;;0.47;;
35977;SDS011;22056;0.000;0.000;2023-03-23T06:43:14;0.70;;;0.35;;
35977;SDS011;22056;0.000;0.000;2023-03-23T06:45:40;2.75;;;0.60;;
35977;SDS011;22056;0.000;0.000;2023-03-23T06:48:06;1.00;;;0.45;;
35977;SDS011;22056;0.000;0.000;2023-03-23T06:50:33;4.00;;;0.60;;
35977;SDS011;22056;0.000;0.000;2023-03-23T06:52:59;2.88;;;0.70;;
35977;SDS011;22056;0.000;0.000;2023-03-23T06:55:25;1.08;;;0.40;;
35977;SDS011;22056;0.000;0.000;2023-03-23T06:57:52;0.93;;;0.50;;
35977;SDS011;22056;0.000;0.000;2023-03-23T07:00:18;3.67;;;0.60;;
35977;SDS011;22056;0.000;0.000;2023-03-23T07:02:44;2.70;;;0.60;;
35977;SDS011;22056;0.000;0.000;2023-03-23T07:05:10;3.60;;;0.70;;
35977;SDS011;22056;0.000;0.000;2023-03-23T07:07:37;2.33;;;0.80;;
35977;SDS011;22056;0.000;0.000;2023-03-23T07:10:04;2.08;;;0.82;;
35977;SDS011;22056;0.000;0.000;2023-03-23T07:12:30;1.75;;;0.50;;
35977;SDS011;22056;0.000;0.000;2023-03-23T07:14:58;2.83;;;0.80;;
35977;SDS011;22056;0.000;0.000;2023-03-23T07:17:24;3.67;;;0.50;;
35977;SDS011;22056;0.000;0.000;2023-03-23T07:19:50;4.75;;;0.60;;
35977;SDS011;22056;0.000;0.000;2023-03-23T07:22:16;3.85;;;0.40;;
35977;SDS011;22056;0.000;0.000;2023-03-23T07:24:43;5.28;;;1.05;;
35977;SDS011;22056;0.000;0.000;2023-03-23T07:27:09;2.17;;;0.73;;
35977;SDS011;22056;0.000;0.000;2023-03-23T07:29:35;1.50;;;0.47;;
35977;SDS011;22056;0.000;0.000;2023-03-23T07:32:05;2.15;;;0.55;;
35977;SDS011;22056;0.000;0.000;2023-03-23T07:34:32;1.75;;;0.52;;
35977;SDS011;22056;0.000;0.000;2023-03-23T07:36:58;4.28;;;0.70;;
35977;SDS011;22056;0.000;0.000;2023-03-23T07:39:25;4.35;;;0.60;;
35977;SDS011;22056;0.000;0.000;2023-03-23T07:41:51;2.00;;;0.73;;
35977;SDS011;22056;0.000;0.000;2023-03-23T07:44:17;1.63;;;0.40;;
35977;SDS011;22056;0.000;0.000;2023-03-23T07:46:43;3.13;;;0.60;;
35977;SDS011;22056;0.000;0.000;2023-03-23T07:49:10;1.40;;;0.50;;
35977;SDS011;22056;0.000;0.000;2023-03-23T07:51:36;2.03;;;0.57;;
35977;SDS011;22056;0.000;0.000;2023-03-23T07:54:03;3.22;;;0.70;;
35977;SDS011;22056;0.000;0.000;2023-03-23T07:56:32;1.33;;;0.68;;
35977;SDS011;22056;0.000;0.000;2023-03-23T07:58:58;3.60;;;0.85;;
35977;SDS011;22056;0.000;0.000;2023-03-23T08:01:25;3.78;;;0.70;;
35977;SDS011;22056;0.000;0.000;2023-03-23T08:03:52;3.75;;;0.95;;
35977;SDS011;22056;0.000;0.000;2023-03-23T08:06:19;3.20;;;0.90;;
35977;SDS011;22056;0.000;0.000;2023-03-23T08:08:46;2.28;;;0.70;;
35977;SDS011;22056;0.000;0.000;2023-03-23T08:11:13;2.28;;;0.70;;
35977;SDS011;22056;0.000;0.000;2023-03-23T08:13:40;2.78;;;0.60;;
35977;SDS011;22056;0.000;0.000;2023-03-23T08:16:07;6.43;;;1.10;;
35977;SDS011;22056;0.000;0.000;2023-03-23T08:18:34;3.25;;;0.60;;
35977;SDS011;22056;0.000;0.000;2023-03-23T08:21:01;2.58;;;0.70;;
35977;SDS011;22056;0.000;0.000;2023-03-23T08:23:29;3.15;;;0.60;;
35977;SDS011;22056;0.000;0.000;2023-03-23T08:25:55;3.08;;;0.90;;
35977;SDS011;22056;0.000;0.000;2023-03-23T08:28:22;3.50;;;0.60;;
35977;SDS011;22056;0.000;0.000;2023-03-23T08:30:48;1.75;;;0.70;;
35977;SDS011;22056;0.000;0.000;2023-03-23T08:33:16;1.92;;;0.80;;
35977;SDS011;22056;0.000;0.000;2023-03-23T08:35:43;3.92;;;0.57;;
35977;SDS011;22056;0.000;0.000;2023-03-23T08:38:10;2.45;;;0.70;;
35977;SDS011;22056;0.000;0.000;2023-03-23T08:40:36;2.92;;;0.70;;
35977;SDS011;22056;0.000;0.000;2023-03-23T08:43:05;3.85;;;0.77;;
35977;SDS011;22056;0.000;0.000;2023-03-23T08:45:31;5.32;;;0.80;;
35977;SDS011;22056;0.000;0.000;2023-03-23T08:47:57;3.95;;;0.85;;
35977;SDS011;22056;0.000;0.000;2023-03-23T08:50:26;2.55;;;0.70;;
35977;SDS011;22056;0.000;0.000;2023-03-23T08:52:52;2.70;;;0.70;;
35977;SDS011;22056;0.000;0.000;2023-03-23T08:55:20;2.25;;;0.90;;
35977;SDS011;22056;0.000;0.000;2023-03-23T08:57:47;1.92;;;0.52;;
35977;SDS011;22056;0.000;0.000;2023-03-23T09:00:14;1.92;;;0.68;;
35977;SDS011;22056;0.000;0.000;2023-03-23T09:02:46;3.63;;;0.68;;
35977;SDS011;22056;0.000;0.000;2023-03-23T09:05:13;5.20;;;0.80;;
35977;SDS011;22056;0.000;0.000;2023-03-23T09:07:41;4.18;;;0.90;;
35977;SDS011;22056;0.000;0.000;2023-03-23T09:10:07;2.58;;;0.60;;
35977;SDS011;22056;0.000;0.000;2023-03-23T09:12:34;1.77;;;0.70;;
35977;SDS011;22056;0.000;0.000;2023-03-23T09:15:02;2.60;;;0.60;;
35977;SDS011;22056;0.000;0.000;2023-03-23T09:17:37;2.60;;;0.68;;
35977;SDS011;22056;0.000;0.000;2023-03-23T09:20:08;7.25;;;0.95;;
35977;SDS011;22056;0.000;0.000;2023-03-23T09:22:39;2.70;;;0.85;;
35977;SDS011;22056;0.000;0.000;2023-03-23T09:25:07;1.42;;;0.73;;
35977;SDS011;22056;0.000;0.000;2023-03-23T09:27:34;4.53;;;0.90;;
35977;SDS011;22056;0.000;0.000;2023-03-23T09:30:04;3.47;;;1.10;;
35977;SDS011;22056;0.000;0.000;2023-03-23T09:32:34;6.22;;;1.00;;
35977;SDS011;22056;0.000;0.000;2023-03-23T09:35:01;2.88;;;0.95;;
35977;SDS011;22056;0.000;0.000;2023-03-23T09:37:28;6.00;;;1.08;;
35977;SDS011;22056;0.000;0.000;2023-03-23T09:39:54;3.47;;;0.98;;
35977;SDS011;22056;0.000;0.000;2023-03-23T09:42:25;4.75;;;0.82;;
35977;SDS011;22056;0.000;0.000;2023-03-23T09:47:45;5.60;;;0.90;;
35977;SDS011;22056;0.000;0.000;2023-03-23T09:50:16;3.75;;;0.88;;
35977;SDS011;22056;0.000;0.000;2023-03-23T09:52:45;5.13;;;0.85;;
35977;SDS011;22056;0.000;0.000;2023-03-23T09:55:13;2.13;;;1.00;;
35977;SDS011;22056;0.000;0.000;2023-03-23T09:57:43;2.70;;;0.70;;
35977;SDS011;22056;0.000;0.000;2023-03-23T10:00:13;1.95;;;0.68;;
35977;SDS011;22056;0.000;0.000;2023-03-23T10:05:29;2.25;;;0.52;;
35977;SDS011;22056;0.000;0.000;2023-03-23T10:07:57;2.20;;;0.70;;
35977;SDS011;22056;0.000;0.000;2023-03-23T10:13:15;6.70;;;0.90;;
35977;SDS011;22056;0.000;0.000;2023-03-23T10:15:43;3.38;;;0.57;;
35977;SDS011;22056;0.000;0.000;2023-03-23T10:18:12;1.10;;;0.63;;
35977;SDS011;22056;0.000;0.000;2023-03-23T10:26:04;2.63;;;0.75;;
35977;SDS011;22056;0.000;0.000;2023-03-23T10:28:37;3.33;;;0.77;;
35977;SDS011;22056;0.000;0.000;2023-03-23T10:31:08;4.03;;;0.88;;
35977;SDS011;22056;0.000;0.000;2023-03-23T10:33:40;4.45;;;0.88;;
35977;SDS011;22056;0.000;0.000;2023-03-23T10:41:35;5.70;;;0.60;;
35977;SDS011;22056;0.000;0.000;2023-03-23T10:44:03;2.72;;;0.90;;
35977;SDS011;22056;0.000;0.000;2023-03-23T10:49:38;2.70;;;0.70;;
35977;SDS011;22056;0.000;0.000;2023-03-23T10:52:12;2.30;;;0.90;;
35977;SDS011;22056;0.000;0.000;2023-03-23T10:54:46;3.45;;;0.77;;
35977;SDS011;22056;0.000;0.000;2023-03-23T10:57:20;2.05;;;0.73;;
35977;SDS011;22056;0.000;0.000;2023-03-23T10:59:48;5.63;;;0.80;;
35977;SDS011;22056;0.000;0.000;2023-03-23T11:02:17;2.65;;;0.75;;
35977;SDS011;22056;0.000;0.000;2023-03-23T11:04:45;2.90;;;0.70;;
35977;SDS011;22056;0.000;0.000;2023-03-23T11:07:17;3.55;;;0.82;;
35977;SDS011;22056;0.000;0.000;2023-03-23T11:09:52;3.60;;;0.70;;
35977;SDS011;22056;0.000;0.000;2023-03-23T11:12:18;3.17;;;0.50;;
35977;SDS011;22056;0.000;0.000;2023-03-23T11:14:45;3.85;;;0.70;;
35977;SDS011;22056;0.000;0.000;2023-03-23T11:17:24;2.20;;;0.57;;
35977;SDS011;22056;0.000;0.000;2023-03-23T11:19:52;1.60;;;0.90;;
35977;SDS011;22056;0.000;0.000;2023-03-23T11:22:27;7.28;;;0.95;;
35977;SDS011;22056;0.000;0.000;2023-03-23T11:24:54;2.40;;;0.82;;
35977;SDS011;22056;0.000;0.000;2023-03-23T11:27:21;5.93;;;0.77;;
35977;SDS011;22056;0.000;0.000;2023-03-23T11:29:50;4.63;;;0.70;;
35977;SDS011;22056;0.000;0.000;2023-03-23T11:32:18;3.70;;;0.77;;
35977;SDS011;22056;0.000;0.000;2023-03-23T11:34:45;4.43;;;0.80;;
35977;SDS011;22056;0.000;0.000;2023-03-23T11:37:28;3.40;;;0.70;;
35977;SDS011;22056;0.000;0.000;2023-03-23T11:40:13;2.17;;;0.60;;
35977;SDS011;22056;0.000;0.000;2023-03-23T11:42:45;2.20;;;0.70;;
35977;SDS011;22056;0.000;0.000;2023-03-23T11:47:59;4.45;;;0.80;;
35977;SDS011;22056;0.000;0.000;2023-03-23T11:50:43;4.03;;;0.75;;
35977;SDS011;22056;0.000;0.000;2023-03-23T11:53:15;2.95;;;0.65;;
35977;SDS011;22056;0.000;0.000;2023-03-23T11:58:18;2.35;;;0.60;;
35977;SDS011;22056;0.000;0.000;2023-03-23T12:00:55;4.63;;;0.85;;
35977;SDS011;22056;0.000;0.000;2023-03-23T12:03:21;3.85;;;0.73;;
35977;SDS011;22056;0.000;0.000;2023-03-23T12:06:04;4.00;;;0.68;;
35977;SDS011;22056;0.000;0.000;2023-03-23T12:19:00;4.75;;;0.80;;
35977;SDS011;22056;0.000;0.000;2023-03-23T12:21:35;1.90;;;0.80;;
35977;SDS011;22056;0.000;0.000;2023-03-23T12:26:33;6.25;;;1.13;;
35977;SDS011;22056;0.000;0.000;2023-03-23T12:42:01;4.03;;;0.77;;
35977;SDS011;22056;0.000;0.000;2023-03-23T12:44:50;2.58;;;0.65;;
35977;SDS011;22056;0.000;0.000;2023-03-23T12:52:28;6.63;;;0.70;;
35977;SDS011;22056;0.000;0.000;2023-03-23T12:55:00;4.90;;;0.88;;
35977;SDS011;22056;0.000;0.000;2023-03-23T12:57:38;4.43;;;0.70;;
35977;SDS011;22056;0.000;0.000;2023-03-23T13:00:12;3.88;;;0.65;;
35977;SDS011;22056;0.000;0.000;2023-03-23T13:03:14;5.10;;;1.10;;
35977;SDS011;22056;0.000;0.000;2023-03-23T13:08:17;6.13;;;1.05;;
35977;SDS011;22056;0.000;0.000;2023-03-23T13:10:45;4.85;;;0.90;;
35977;SDS011;22056;0.000;0.000;2023-03-23T13:13:19;2.10;;;0.70;;
35977;SDS011;22056;0.000;0.000;2023-03-23T13:23:41;1.77;;;0.55;;
35977;SDS011;22056;0.000;0.000;2023-03-23T13:26:10;2.95;;;0.80;;
35977;SDS011;22056;0.000;0.000;2023-03-23T13:28:49;2.60;;;1.02;;
35977;SDS011;22056;0.000;0.000;2023-03-23T13:31:20;4.28;;;1.08;;
35977;SDS011;22056;0.000;0.000;2023-03-23T13:33:51;3.90;;;1.35;;
35977;SDS011;22056;0.000;0.000;2023-03-23T13:36:24;5.75;;;0.60;;
35977;SDS011;22056;0.000;0.000;2023-03-23T13:38:51;7.45;;;0.98;;
35977;SDS011;22056;0.000;0.000;2023-03-23T13:41:18;4.28;;;1.13;;
35977;SDS011;22056;0.000;0.000;2023-03-23T13:43:46;7.03;;;0.90;;
35977;SDS011;22056;0.000;0.000;2023-03-23T13:48:46;5.40;;;1.00;;
35977;SDS011;22056;0.000;0.000;2023-03-23T13:53:50;16.25;;;1.50;;
35977;SDS011;22056;0.000;0.000;2023-03-23T13:56:21;11.85;;;2.25;;
35977;SDS011;22056;0.000;0.000;2023-03-23T13:59:05;13.95;;;1.88;;
35977;SDS011;22056;0.000;0.000;2023-03-23T14:01:33;15.80;;;2.13;;
35977;SDS011;22056;0.000;0.000;2023-03-23T14:04:10;9.70;;;1.48;;
35977;SDS011;22056;0.000;0.000;2023-03-23T14:06:38;6.43;;;1.27;;
35977;SDS011;22056;0.000;0.000;2023-03-23T14:09:16;5.32;;;1.25;;
35977;SDS011;22056;0.000;0.000;2023-03-23T14:12:02;9.43;;;1.58;;
35977;SDS011;22056;0.000;0.000;2023-03-23T14:14:50;5.07;;;1.00;;
35977;SDS011;22056;0.000;0.000;2023-03-23T14:17:17;6.40;;;1.67;;
35977;SDS011;22056;0.000;0.000;2023-03-23T14:19:48;6.28;;;1.38;;
35977;SDS011;22056;0.000;0.000;2023-03-23T14:22:21;8.95;;;1.58;;
35977;SDS011;22056;0.000;0.000;2023-03-23T14:24:48;8.45;;;1.63;;
35977;SDS011;22056;0.000;0.000;2023-03-23T14:27:15;7.07;;;1.35;;
35977;SDS011;22056;0.000;0.000;2023-03-23T14:29:42;9.68;;;1.55;;
35977;SDS011;22056;0.000;0.000;2023-03-23T14:32:16;9.43;;;1.45;;
35977;SDS011;22056;0.000;0.000;2023-03-23T14:34:43;8.73;;;1.85;;
35977;SDS011;22056;0.000;0.000;2023-03-23T14:37:12;10.88;;;1.35;;
35977;SDS011;22056;0.000;0.000;2023-03-23T14:39:40;6.32;;;1.45;;
35977;SDS011;22056;0.000;0.000;2023-03-23T14:42:11;3.85;;;1.20;;
35977;SDS011;22056;0.000;0.000;2023-03-23T14:44:40;8.88;;;1.50;;
35977;SDS011;22056;0.000;0.000;2023-03-23T14:47:09;4.88;;;1.15;;
35977;SDS011;22056;0.000;0.000;2023-03-23T14:49:37;7.35;;;1.60;;
35977;SDS011;22056;0.000;0.000;2023-03-23T14:52:13;6.15;;;1.25;;
35977;SDS011;22056;0.000;0.000;2023-03-23T14:54:40;10.63;;;1.20;;
35977;SDS011;22056;0.000;0.000;2023-03-23T15:02:10;6.30;;;1.55;;
35977;SDS011;22056;0.000;0.000;2023-03-23T15:04:38;8.48;;;1.20;;
35977;SDS011;22056;0.000;0.000;2023-03-23T15:07:04;10.32;;;1.75;;
35977;SDS011;22056;0.000;0.000;2023-03-23T15:09:31;6.70;;;1.10;;
35977;SDS011;22056;0.000;0.000;2023-03-23T15:11:59;8.43;;;1.30;;
35977;SDS011;22056;0.000;0.000;2023-03-23T15:14:33;6.47;;;1.45;;
35977;SDS011;22056;0.000;0.000;2023-03-23T15:17:01;7.75;;;1.45;;
35977;SDS011;22056;0.000;0.000;2023-03-23T15:19:28;5.55;;;1.10;;
35977;SDS011;22056;0.000;0.000;2023-03-23T15:22:05;4.65;;;1.23;;
35977;SDS011;22056;0.000;0.000;2023-03-23T15:29:53;8.90;;;1.88;;
35977;SDS011;22056;0.000;0.000;2023-03-23T15:32:23;6.60;;;1.77;;
35977;SDS011;22056;0.000;0.000;2023-03-23T15:34:50;9.63;;;1.48;;
35977;SDS011;22056;0.000;0.000;2023-03-23T15:37:32;10.30;;;1.73;;
35977;SDS011;22056;0.000;0.000;2023-03-23T15:39:59;7.93;;;1.45;;
35977;SDS011;22056;0.000;0.000;2023-03-23T15:42:32;6.95;;;1.25;;
35977;SDS011;22056;0.000;0.000;2023-03-23T15:47:35;9.60;;;1.50;;
35977;SDS011;22056;0.000;0.000;2023-03-23T15:50:03;5.85;;;1.50;;
35977;SDS011;22056;0.000;0.000;2023-03-23T15:52:33;7.88;;;1.63;;
35977;SDS011;22056;0.000;0.000;2023-03-23T15:54:59;6.22;;;1.30;;
35977;SDS011;22056;0.000;0.000;2023-03-23T15:57:25;4.68;;;1.20;;
35977;SDS011;22056;0.000;0.000;2023-03-23T15:59:52;7.00;;;1.35;;
35977;SDS011;22056;0.000;0.000;2023-03-23T16:02:20;6.18;;;1.27;;
35977;SDS011;22056;0.000;0.000;2023-03-23T16:04:47;4.95;;;1.60;;
35977;SDS011;22056;0.000;0.000;2023-03-23T16:07:13;6.18;;;1.63;;
35977;SDS011;22056;0.000;0.000;2023-03-23T16:09:39;4.82;;;1.15;;
35977;SDS011;22056;0.000;0.000;2023-03-23T16:12:12;7.40;;;1.35;;
35977;SDS011;22056;0.000;0.000;2023-03-23T16:14:39;8.45;;;1.40;;
35977;SDS011;22056;0.000;0.000;2023-03-23T16:17:05;8.73;;;1.48;;
35977;SDS011;22056;0.000;0.000;2023-03-23T16:19:34;4.47;;;0.90;;
35977;SDS011;22056;0.000;0.000;2023-03-23T16:22:01;6.07;;;0.95;;
35977;SDS011;22056;0.000;0.000;2023-03-23T16:24:27;3.95;;;1.00;;
35977;SDS011;22056;0.000;0.000;2023-03-23T16:26:53;5.38;;;1.15;;
35977;SDS011;22056;0.000;0.000;2023-03-23T16:29:19;4.07;;;0.80;;
35977;SDS011;22056;0.000;0.000;2023-03-23T16:31:45;3.47;;;0.80;;
35977;SDS011;22056;0.000;0.000;2023-03-23T16:34:11;8.30;;;1.60;;
35977;SDS011;22056;0.000;0.000;2023-03-23T16:36:37;7.65;;;1.50;;
35977;SDS011;22056;0.000;0.000;2023-03-23T16:39:04;8.88;;;1.02;;
35977;SDS011;22056;0.000;0.000;2023-03-23T16:41:30;5.45;;;1.30;;
35977;SDS011;22056;0.000;0.000;2023-03-23T16:43:56;5.40;;;1.10;;
35977;SDS011;22056;0.000;0.000;2023-03-23T16:46:23;4.57;;;0.93;;
35977;SDS011;22056;0.000;0.000;2023-03-23T16:48:49;4.57;;;1.00;;
35977;SDS011;22056;0.000;0.000;2023-03-23T16:51:15;5.75;;;1.10;;